Ash, Missouri
Current Conditions -  °F | °C
As of 10:35 AM on Saturday 20 Dec 2014 (Local Time) from KHAE Reporting Station
Haze Haze  
Wind Chill:   Ceiling: 700
Heat Index:   Visibility: 5mi
Dew Point:   Wind: 5mph
Humidity: 87%   Direction: 170°S
Pressure: 30.25"   Gusts: NA
Location:  39.4792°N, 92.217°W
Report Text: KHAE 201635Z AUTO 17004KT 5SM HZ OVC007 02/00 A3025 RMK AO2
Loading
Personal Weather Stations






























Interactive Weather Map New forecast layout! Learn more

10-Day Weather Forecast

Advertisements
Track Severe Weather on mobile